createdAt,value
2023-04-05T00:01:59.108Z,7.13
2023-04-05T00:04:29.106Z,6.93
2023-04-05T00:06:59.358Z,7.00
2023-04-05T00:09:28.935Z,6.57
2023-04-05T00:11:58.071Z,6.60
2023-04-05T00:14:27.343Z,6.27
2023-04-05T00:16:55.525Z,6.87
2023-04-05T00:19:23.696Z,6.63
2023-04-05T00:21:54.785Z,6.43
2023-04-05T00:24:24.796Z,6.47
2023-04-05T00:26:53.941Z,6.53
2023-04-05T00:29:22.128Z,7.20
2023-04-05T00:32:10.210Z,7.90
2023-04-05T00:34:39.969Z,7.03
2023-04-05T00:37:09.281Z,6.07
2023-04-05T00:51:06.351Z,6.50
2023-04-05T00:57:09.414Z,6.07
2023-04-05T01:02:49.205Z,6.40
2023-04-05T01:05:33.046Z,5.87
2023-04-05T01:11:26.429Z,5.80
2023-04-05T01:14:08.239Z,6.00
2023-04-05T01:16:45.774Z,6.43
2023-04-05T01:40:44.385Z,6.30
2023-04-05T01:58:39.341Z,6.07
2023-04-05T02:01:09.946Z,5.93
2023-04-05T02:06:33.030Z,5.67
2023-04-05T02:09:04.087Z,6.07
2023-04-05T02:11:35.889Z,5.77
2023-04-05T02:14:11.323Z,5.83
2023-04-05T02:17:09.306Z,5.13
2023-04-05T02:19:54.886Z,5.47
2023-04-05T02:34:59.038Z,6.37
2023-04-05T03:15:59.393Z,6.63
2023-04-05T03:18:30.880Z,5.90
2023-04-05T03:21:03.654Z,5.87
2023-04-05T03:23:48.815Z,6.70
2023-04-05T03:26:40.710Z,6.47
2023-04-05T03:35:46.821Z,6.63
2023-04-05T03:38:19.610Z,7.30
2023-04-05T03:40:57.516Z,6.80
2023-04-05T03:43:30.730Z,7.23
2023-04-05T03:48:58.274Z,7.20
2023-04-05T03:51:49.771Z,7.07
2023-04-05T04:03:11.691Z,7.40
2023-04-05T04:05:46.898Z,7.67
2023-04-05T04:08:30.325Z,7.30
2023-04-05T04:11:00.626Z,7.90
2023-04-05T04:13:31.349Z,7.43
2023-04-05T04:16:00.105Z,7.80
2023-04-05T04:18:29.068Z,8.17
2023-04-05T04:20:58.790Z,8.33
2023-04-05T04:23:29.232Z,8.10
2023-04-05T04:25:58.592Z,7.60
2023-04-05T04:28:28.307Z,8.37
2023-04-05T04:30:57.100Z,8.33
2023-04-05T04:33:26.621Z,7.83
2023-04-05T04:35:55.830Z,7.63
2023-04-05T04:38:26.436Z,8.73
2023-04-05T04:40:58.537Z,9.20
2023-04-05T04:43:29.424Z,8.57
2023-04-05T04:45:58.525Z,9.60
2023-04-05T04:48:26.852Z,8.53
2023-04-05T04:51:09.940Z,9.40
2023-04-05T04:53:39.994Z,9.67
2023-04-05T04:56:11.619Z,8.77
2023-04-05T04:58:40.424Z,9.73
2023-04-05T05:01:11.615Z,8.93
2023-04-05T05:03:40.524Z,9.63
2023-04-05T05:06:10.160Z,9.23
2023-04-05T05:08:38.615Z,9.20
2023-04-05T05:11:09.691Z,9.57
2023-04-05T05:13:37.757Z,9.90
2023-04-05T05:16:07.418Z,9.03
2023-04-05T05:18:35.764Z,9.33
2023-04-05T05:21:03.765Z,9.13
2023-04-05T05:23:31.969Z,9.30
2023-04-05T05:26:00.601Z,9.57
2023-04-05T05:28:30.562Z,10.10
2023-04-05T05:30:58.697Z,10.13
2023-04-05T05:33:27.244Z,9.93
2023-04-05T05:35:56.730Z,10.43
2023-04-05T05:38:25.044Z,10.33
2023-04-05T05:40:57.245Z,10.47
2023-04-05T05:43:25.308Z,9.90
2023-04-05T05:45:54.940Z,10.43
2023-04-05T05:48:23.025Z,10.77
2023-04-05T05:50:51.014Z,10.70
2023-04-05T05:53:19.145Z,10.63
2023-04-05T05:55:47.369Z,10.67
2023-04-05T05:58:16.012Z,11.03
2023-04-05T06:00:44.201Z,10.70
2023-04-05T06:03:13.941Z,11.30
2023-04-05T06:05:43.873Z,11.27
2023-04-05T06:08:11.824Z,10.40
2023-04-05T06:10:40.114Z,10.37
2023-04-05T06:13:08.556Z,11.77
2023-04-05T06:15:37.668Z,11.83
2023-04-05T06:18:05.811Z,11.80
2023-04-05T06:20:35.827Z,11.33
2023-04-05T06:23:03.917Z,11.40
2023-04-05T06:25:32.033Z,10.63
2023-04-05T06:28:00.193Z,12.00
2023-04-05T06:30:28.282Z,12.13
2023-04-05T06:32:56.594Z,11.77
2023-04-05T06:35:26.382Z,11.80
2023-04-05T06:37:55.867Z,11.70
2023-04-05T06:40:23.965Z,12.30
2023-04-05T06:42:52.014Z,11.43
2023-04-05T06:45:20.737Z,11.00
2023-04-05T06:47:48.858Z,11.60
2023-04-05T06:50:16.919Z,10.63
2023-04-05T06:52:44.980Z,11.43
2023-04-05T06:55:46.891Z,11.00
2023-04-05T06:58:15.033Z,10.33
2023-04-05T07:00:55.401Z,10.60
2023-04-05T07:03:23.844Z,11.43
2023-04-05T07:05:53.641Z,10.87
2023-04-05T07:08:22.637Z,12.80
2023-04-05T07:10:57.162Z,11.40
2023-04-05T07:13:25.890Z,12.00
2023-04-05T07:16:00.701Z,11.50
2023-04-05T07:18:30.233Z,11.07
2023-04-05T07:21:02.143Z,12.07
2023-04-05T07:23:30.987Z,11.77
2023-04-05T07:26:05.903Z,11.60
2023-04-05T07:28:35.623Z,12.30
2023-04-05T07:31:04.474Z,12.03
2023-04-05T07:33:32.906Z,11.03
2023-04-05T07:36:01.268Z,12.17
2023-04-05T07:38:30.187Z,12.47
2023-04-05T07:40:58.950Z,12.60
2023-04-05T07:43:28.499Z,12.60
2023-04-05T07:46:03.225Z,11.97
2023-04-05T07:48:31.827Z,12.53
2023-04-05T07:51:05.683Z,12.07
2023-04-05T07:53:34.382Z,11.77
2023-04-05T07:56:05.774Z,11.37
2023-04-05T07:58:40.882Z,12.43
2023-04-05T08:01:10.448Z,13.00
2023-04-05T08:03:40.517Z,13.30
2023-04-05T08:06:12.650Z,12.37
2023-04-05T08:08:41.335Z,12.57
2023-04-05T08:11:11.256Z,13.00
2023-04-05T08:13:42.650Z,12.03
2023-04-05T08:16:15.966Z,12.67
2023-04-05T08:41:25.974Z,13.93
2023-04-05T08:44:03.274Z,14.17
2023-04-05T08:46:33.995Z,15.47
2023-04-05T08:49:23.672Z,15.17
2023-04-05T08:51:52.910Z,15.07
2023-04-05T08:54:21.562Z,15.23
2023-04-05T08:56:55.876Z,15.07
2023-04-05T08:59:27.414Z,14.97
2023-04-05T09:01:58.698Z,14.87
2023-04-05T09:04:32.162Z,14.00
2023-04-05T09:07:03.205Z,14.23
2023-04-05T09:09:37.287Z,14.33
2023-04-05T09:12:08.976Z,14.50
2023-04-05T09:14:39.194Z,12.70
2023-04-05T09:17:07.901Z,12.10
2023-04-05T09:19:36.226Z,10.03
2023-04-05T09:22:07.021Z,11.17
2023-04-05T09:24:40.949Z,10.30
2023-04-05T09:27:12.683Z,11.13
2023-04-05T09:29:42.132Z,10.60
2023-04-05T09:32:11.716Z,11.03
2023-04-05T09:34:43.587Z,10.00
2023-04-05T09:37:16.407Z,11.47
2023-04-05T09:39:45.436Z,11.33
2023-04-05T09:42:16.667Z,11.63
2023-04-05T09:44:57.322Z,11.23
2023-04-05T09:47:31.278Z,11.00
2023-04-05T09:50:00.444Z,11.40
2023-04-05T09:52:32.281Z,10.97
2023-04-05T09:55:03.295Z,10.63
2023-04-05T09:57:38.024Z,10.60
2023-04-05T10:00:10.254Z,11.27
2023-04-05T10:02:39.456Z,10.60
2023-04-05T10:05:09.051Z,10.80
2023-04-05T10:07:37.921Z,10.67
2023-04-05T10:10:06.645Z,10.30
2023-04-05T10:12:41.953Z,10.43
2023-04-05T10:15:11.251Z,10.00
2023-04-05T10:17:49.354Z,10.03
2023-04-05T10:20:20.248Z,10.80
2023-04-05T10:23:02.097Z,10.10
2023-04-05T10:25:43.994Z,10.70
2023-04-05T10:28:30.264Z,10.60
2023-04-05T10:31:06.962Z,10.67
2023-04-05T10:33:42.709Z,10.70
2023-04-05T10:36:18.769Z,10.23
2023-04-05T10:39:00.117Z,10.07
2023-04-05T10:41:28.687Z,9.80
2023-04-05T10:43:59.426Z,9.53
2023-04-05T10:46:28.585Z,10.50
2023-04-05T10:49:05.001Z,9.83
2023-04-05T10:51:35.570Z,9.30
2023-04-05T10:54:04.353Z,8.23
2023-04-05T10:56:33.475Z,6.93
2023-04-05T10:59:03.795Z,6.13
2023-04-05T11:01:34.309Z,3.90
2023-04-05T11:04:13.098Z,3.77
2023-04-05T11:06:41.518Z,3.80
2023-04-05T11:09:15.621Z,3.60
2023-04-05T11:11:45.314Z,3.30
2023-04-05T11:14:22.618Z,3.70
2023-04-05T11:16:53.605Z,2.90
2023-04-05T11:19:22.326Z,2.87
2023-04-05T11:22:02.496Z,3.00
2023-04-05T11:24:58.977Z,3.20
2023-04-05T11:27:28.657Z,4.30
2023-04-05T11:29:59.108Z,4.60
2023-04-05T11:32:41.434Z,4.30
2023-04-05T11:35:14.212Z,2.57
2023-04-05T11:38:07.200Z,2.40
2023-04-05T11:40:36.664Z,2.30
2023-04-05T11:43:07.985Z,2.10
2023-04-05T11:45:39.178Z,1.80
2023-04-05T11:48:10.978Z,1.70
2023-04-05T11:50:41.971Z,2.20
2023-04-05T11:53:12.554Z,2.33
2023-04-05T11:55:42.257Z,2.47
2023-04-05T11:58:14.676Z,2.53
2023-04-05T12:00:46.417Z,2.70
2023-04-05T12:03:15.653Z,2.60
2023-04-05T12:05:51.595Z,2.57
2023-04-05T12:08:20.334Z,2.43
2023-04-05T12:10:56.411Z,2.60
2023-04-05T12:13:31.529Z,2.73
2023-04-05T12:16:02.612Z,2.60
2023-04-05T12:18:33.170Z,2.17
2023-04-05T12:21:04.886Z,2.50
2023-04-05T12:23:35.274Z,2.30
2023-04-05T12:26:04.511Z,2.50
2023-04-05T12:28:54.253Z,2.10
2023-04-05T12:31:40.993Z,2.10
2023-04-05T12:34:10.555Z,2.07
2023-04-05T12:36:40.317Z,2.00
2023-04-05T12:39:11.970Z,1.90
2023-04-05T12:41:40.498Z,2.07
2023-04-05T12:44:14.043Z,2.60
2023-04-05T12:46:45.266Z,2.53
2023-04-05T12:49:14.144Z,2.17
2023-04-05T12:51:46.732Z,2.20
2023-04-05T12:54:17.102Z,2.10
2023-04-05T12:56:45.524Z,2.00
2023-04-05T12:59:14.147Z,1.80
2023-04-05T13:01:45.749Z,2.03
2023-04-05T13:04:16.457Z,2.40
2023-04-05T13:06:48.016Z,1.97
2023-04-05T13:09:16.397Z,2.30
2023-04-05T13:11:44.670Z,2.30
2023-04-05T13:14:12.816Z,2.20
2023-04-05T13:16:41.149Z,2.13
2023-04-05T13:19:11.170Z,2.37
2023-04-05T13:21:39.781Z,2.53
2023-04-05T13:24:08.873Z,2.47
2023-04-05T13:26:38.508Z,2.90
2023-04-05T13:29:07.425Z,2.70
2023-04-05T13:31:36.123Z,2.70
2023-04-05T13:34:04.466Z,3.00
2023-04-05T13:36:34.367Z,3.13
2023-04-05T13:39:02.564Z,3.23
2023-04-05T13:41:30.584Z,3.00
2023-04-05T13:44:01.112Z,2.90
2023-04-05T13:46:34.227Z,3.00
2023-04-05T13:49:02.286Z,3.10
2023-04-05T13:51:34.645Z,2.80
2023-04-05T13:54:06.350Z,3.13
2023-04-05T13:56:35.037Z,3.10
2023-04-05T13:59:17.510Z,3.07
2023-04-05T14:01:45.803Z,3.23
2023-04-05T14:04:14.126Z,3.50
2023-04-05T14:06:42.388Z,3.20
2023-04-05T14:09:12.458Z,3.37
2023-04-05T14:11:41.589Z,4.10
2023-04-05T14:14:10.114Z,3.70
2023-04-05T14:16:45.201Z,3.40
2023-04-05T14:19:18.168Z,3.60
2023-04-05T14:21:47.015Z,3.50
2023-04-05T14:30:28.738Z,2.80
2023-04-05T14:33:00.496Z,3.73
2023-04-05T15:21:02.511Z,2.50
2023-04-05T15:59:39.025Z,2.63
2023-04-05T16:03:15.880Z,2.80
2023-04-05T16:09:15.378Z,3.70
2023-04-05T23:43:42.400Z,2.27
